sensor_id;sensor_type;location;lat;lon;timestamp;P1;durP1;ratioP1;P2;durP2;ratioP2
48574;SDS011;34352;51.084;3.712;2022-11-20T06:06:05;133.45;;;38.90;;
48574;SDS011;34352;51.084;3.712;2022-11-20T07:05:48;133.88;;;39.15;;
48574;SDS011;34352;51.084;3.712;2022-11-20T09:25:38;91.45;;;31.77;;
48574;SDS011;34352;51.084;3.712;2022-11-20T11:43:38;12.23;;;7.10;;
48574;SDS011;34352;51.084;3.712;2022-11-20T11:47:11;9.70;;;4.43;;
48574;SDS011;34352;51.084;3.712;2022-11-20T12:14:19;14.13;;;7.35;;
48574;SDS011;34352;51.084;3.712;2022-11-20T12:20:23;14.63;;;6.60;;
48574;SDS011;34352;51.084;3.712;2022-11-20T12:30:52;12.18;;;6.88;;
48574;SDS011;34352;51.084;3.712;2022-11-20T14:17:34;7.82;;;6.60;;
48574;SDS011;34352;51.084;3.712;2022-11-20T14:21:00;10.25;;;6.97;;
48574;SDS011;34352;51.084;3.712;2022-11-20T14:24:19;7.30;;;6.03;;
48574;SDS011;34352;51.084;3.712;2022-11-20T14:27:32;10.52;;;8.43;;
48574;SDS011;34352;51.084;3.712;2022-11-20T14:33:01;11.05;;;8.63;;
48574;SDS011;34352;51.084;3.712;2022-11-20T14:36:17;11.65;;;9.02;;
48574;SDS011;34352;51.084;3.712;2022-11-20T14:47:04;12.43;;;9.20;;
48574;SDS011;34352;51.084;3.712;2022-11-20T14:50:07;7.32;;;6.47;;
48574;SDS011;34352;51.084;3.712;2022-11-20T15:00:36;9.30;;;4.30;;
48574;SDS011;34352;51.084;3.712;2022-11-20T15:03:30;15.25;;;4.53;;
48574;SDS011;34352;51.084;3.712;2022-11-20T15:06:13;16.15;;;4.03;;
48574;SDS011;34352;51.084;3.712;2022-11-20T15:15:49;11.45;;;3.15;;
48574;SDS011;34352;51.084;3.712;2022-11-20T15:21:10;17.00;;;3.72;;
48574;SDS011;34352;51.084;3.712;2022-11-20T15:29:47;16.98;;;3.53;;
48574;SDS011;34352;51.084;3.712;2022-11-20T15:32:46;18.08;;;4.15;;
48574;SDS011;34352;51.084;3.712;2022-11-20T15:35:23;14.60;;;4.28;;
48574;SDS011;34352;51.084;3.712;2022-11-20T15:40:57;16.88;;;3.92;;
48574;SDS011;34352;51.084;3.712;2022-11-20T15:43:35;21.35;;;5.50;;
48574;SDS011;34352;51.084;3.712;2022-11-20T15:46:55;23.08;;;4.45;;
48574;SDS011;34352;51.084;3.712;2022-11-20T15:49:34;11.07;;;3.35;;
48574;SDS011;34352;51.084;3.712;2022-11-20T15:52:12;18.55;;;3.88;;
48574;SDS011;34352;51.084;3.712;2022-11-20T15:54:45;26.27;;;4.18;;
48574;SDS011;34352;51.084;3.712;2022-11-20T15:57:22;20.42;;;4.15;;
48574;SDS011;34352;51.084;3.712;2022-11-20T16:00:24;16.02;;;3.88;;
48574;SDS011;34352;51.084;3.712;2022-11-20T16:14:03;17.35;;;3.75;;
48574;SDS011;34352;51.084;3.712;2022-11-20T16:17:02;15.82;;;3.53;;
48574;SDS011;34352;51.084;3.712;2022-11-20T16:19:42;18.70;;;4.28;;
48574;SDS011;34352;51.084;3.712;2022-11-20T16:22:41;18.30;;;3.55;;
48574;SDS011;34352;51.084;3.712;2022-11-20T17:10:27;20.45;;;7.10;;
48574;SDS011;34352;51.084;3.712;2022-11-20T17:16:44;25.52;;;7.88;;
48574;SDS011;34352;51.084;3.712;2022-11-20T17:25:31;20.75;;;5.07;;
48574;SDS011;34352;51.084;3.712;2022-11-20T17:28:14;23.15;;;5.15;;
48574;SDS011;34352;51.084;3.712;2022-11-20T17:31:08;26.13;;;5.70;;
48574;SDS011;34352;51.084;3.712;2022-11-20T17:42:07;31.08;;;10.93;;
48574;SDS011;34352;51.084;3.712;2022-11-20T17:44:51;31.77;;;9.35;;
48574;SDS011;34352;51.084;3.712;2022-11-20T17:51:04;40.10;;;12.77;;
48574;SDS011;34352;51.084;3.712;2022-11-20T18:14:34;22.77;;;6.40;;
48574;SDS011;34352;51.084;3.712;2022-11-20T18:17:36;27.35;;;6.35;;
48574;SDS011;34352;51.084;3.712;2022-11-20T18:20:20;26.42;;;5.50;;
48574;SDS011;34352;51.084;3.712;2022-11-20T18:22:47;23.25;;;6.25;;
48574;SDS011;34352;51.084;3.712;2022-11-20T18:25:29;21.92;;;5.72;;
48574;SDS011;34352;51.084;3.712;2022-11-20T18:27:59;23.33;;;5.57;;
48574;SDS011;34352;51.084;3.712;2022-11-20T19:22:09;32.42;;;9.95;;
48574;SDS011;34352;51.084;3.712;2022-11-20T19:24:51;30.23;;;9.65;;
48574;SDS011;34352;51.084;3.712;2022-11-20T19:32:47;34.08;;;9.68;;
48574;SDS011;34352;51.084;3.712;2022-11-20T19:35:14;31.00;;;8.23;;
48574;SDS011;34352;51.084;3.712;2022-11-20T19:37:41;28.55;;;8.77;;
48574;SDS011;34352;51.084;3.712;2022-11-20T19:40:07;28.80;;;9.30;;
48574;SDS011;34352;51.084;3.712;2022-11-20T19:42:34;31.50;;;9.07;;
48574;SDS011;34352;51.084;3.712;2022-11-20T19:45:03;25.60;;;9.43;;
48574;SDS011;34352;51.084;3.712;2022-11-20T19:47:30;27.40;;;8.70;;
48574;SDS011;34352;51.084;3.712;2022-11-20T19:49:57;31.95;;;9.93;;
48574;SDS011;34352;51.084;3.712;2022-11-20T19:52:23;28.13;;;9.07;;
48574;SDS011;34352;51.084;3.712;2022-11-20T19:54:51;32.20;;;9.02;;
48574;SDS011;34352;51.084;3.712;2022-11-20T19:57:18;20.27;;;8.25;;
48574;SDS011;34352;51.084;3.712;2022-11-20T19:59:46;22.65;;;7.88;;
48574;SDS011;34352;51.084;3.712;2022-11-20T20:02:15;26.48;;;9.93;;
48574;SDS011;34352;51.084;3.712;2022-11-20T20:04:41;21.42;;;8.27;;
48574;SDS011;34352;51.084;3.712;2022-11-20T20:07:07;27.52;;;8.45;;
48574;SDS011;34352;51.084;3.712;2022-11-20T20:09:38;24.40;;;7.70;;
48574;SDS011;34352;51.084;3.712;2022-11-20T20:12:15;26.77;;;9.20;;
48574;SDS011;34352;51.084;3.712;2022-11-20T20:14:45;32.95;;;9.90;;
48574;SDS011;34352;51.084;3.712;2022-11-20T20:17:16;28.23;;;10.07;;
48574;SDS011;34352;51.084;3.712;2022-11-20T20:19:49;32.40;;;10.40;;
48574;SDS011;34352;51.084;3.712;2022-11-20T20:22:24;30.65;;;9.80;;
48574;SDS011;34352;51.084;3.712;2022-11-20T20:24:56;26.90;;;8.52;;
48574;SDS011;34352;51.084;3.712;2022-11-20T20:27:26;26.42;;;7.93;;
48574;SDS011;34352;51.084;3.712;2022-11-20T20:30:02;24.13;;;9.02;;
48574;SDS011;34352;51.084;3.712;2022-11-20T20:32:35;28.88;;;10.25;;
48574;SDS011;34352;51.084;3.712;2022-11-20T20:35:14;21.17;;;9.07;;
48574;SDS011;34352;51.084;3.712;2022-11-20T20:37:41;26.70;;;8.48;;
48574;SDS011;34352;51.084;3.712;2022-11-20T20:40:10;34.40;;;8.52;;
48574;SDS011;34352;51.084;3.712;2022-11-20T20:42:39;21.40;;;7.32;;
48574;SDS011;34352;51.084;3.712;2022-11-20T20:45:29;21.83;;;7.25;;
48574;SDS011;34352;51.084;3.712;2022-11-20T20:48:23;30.48;;;7.65;;
48574;SDS011;34352;51.084;3.712;2022-11-20T20:50:55;26.98;;;8.35;;
48574;SDS011;34352;51.084;3.712;2022-11-20T20:53:46;21.88;;;8.30;;
48574;SDS011;34352;51.084;3.712;2022-11-20T20:56:17;20.38;;;8.10;;
48574;SDS011;34352;51.084;3.712;2022-11-20T20:58:43;23.20;;;7.05;;
48574;SDS011;34352;51.084;3.712;2022-11-20T21:01:11;30.45;;;8.05;;
48574;SDS011;34352;51.084;3.712;2022-11-20T21:03:58;29.58;;;8.73;;
48574;SDS011;34352;51.084;3.712;2022-11-20T21:06:34;23.17;;;7.63;;
48574;SDS011;34352;51.084;3.712;2022-11-20T21:09:00;23.13;;;6.93;;
48574;SDS011;34352;51.084;3.712;2022-11-20T21:11:25;30.05;;;6.95;;
48574;SDS011;34352;51.084;3.712;2022-11-20T21:13:53;26.08;;;6.50;;
48574;SDS011;34352;51.084;3.712;2022-11-20T21:16:19;18.48;;;6.00;;
48574;SDS011;34352;51.084;3.712;2022-11-20T21:18:47;17.40;;;5.30;;
48574;SDS011;34352;51.084;3.712;2022-11-20T21:21:13;19.60;;;5.15;;
48574;SDS011;34352;51.084;3.712;2022-11-20T21:24:00;25.27;;;5.25;;
48574;SDS011;34352;51.084;3.712;2022-11-20T21:26:26;13.55;;;4.50;;
48574;SDS011;34352;51.084;3.712;2022-11-20T21:28:55;14.73;;;3.92;;
48574;SDS011;34352;51.084;3.712;2022-11-20T21:31:25;13.20;;;3.72;;
48574;SDS011;34352;51.084;3.712;2022-11-20T21:33:55;12.18;;;3.42;;
48574;SDS011;34352;51.084;3.712;2022-11-20T21:36:23;10.18;;;3.03;;
48574;SDS011;34352;51.084;3.712;2022-11-20T21:38:56;7.97;;;2.60;;
48574;SDS011;34352;51.084;3.712;2022-11-20T21:41:28;8.35;;;2.00;;
48574;SDS011;34352;51.084;3.712;2022-11-20T21:44:11;7.63;;;2.28;;
48574;SDS011;34352;51.084;3.712;2022-11-20T21:46:39;6.88;;;2.35;;
48574;SDS011;34352;51.084;3.712;2022-11-20T21:49:09;8.90;;;2.00;;
48574;SDS011;34352;51.084;3.712;2022-11-20T21:51:34;8.73;;;2.10;;
48574;SDS011;34352;51.084;3.712;2022-11-20T21:54:02;7.25;;;2.55;;
48574;SDS011;34352;51.084;3.712;2022-11-20T21:56:40;13.63;;;4.07;;
48574;SDS011;34352;51.084;3.712;2022-11-20T21:59:09;12.38;;;3.35;;
48574;SDS011;34352;51.084;3.712;2022-11-20T22:01:44;12.43;;;3.22;;
48574;SDS011;34352;51.084;3.712;2022-11-20T22:04:11;11.20;;;2.80;;
48574;SDS011;34352;51.084;3.712;2022-11-20T22:06:41;9.73;;;3.10;;
48574;SDS011;34352;51.084;3.712;2022-11-20T22:09:08;11.38;;;3.28;;
48574;SDS011;34352;51.084;3.712;2022-11-20T22:11:35;13.82;;;2.72;;
48574;SDS011;34352;51.084;3.712;2022-11-20T22:14:08;7.25;;;2.08;;
48574;SDS011;34352;51.084;3.712;2022-11-20T22:16:50;4.97;;;1.63;;
48574;SDS011;34352;51.084;3.712;2022-11-20T22:19:19;4.28;;;1.60;;
48574;SDS011;34352;51.084;3.712;2022-11-20T22:21:56;7.20;;;1.85;;
48574;SDS011;34352;51.084;3.712;2022-11-20T22:24:27;8.63;;;2.22;;
48574;SDS011;34352;51.084;3.712;2022-11-20T22:26:54;7.82;;;2.17;;
48574;SDS011;34352;51.084;3.712;2022-11-20T22:29:20;7.57;;;2.30;;
48574;SDS011;34352;51.084;3.712;2022-11-20T22:34:22;8.90;;;2.58;;
48574;SDS011;34352;51.084;3.712;2022-11-20T22:36:52;11.05;;;3.38;;
48574;SDS011;34352;51.084;3.712;2022-11-20T22:39:18;14.73;;;3.30;;
48574;SDS011;34352;51.084;3.712;2022-11-20T22:41:47;13.75;;;3.47;;
48574;SDS011;34352;51.084;3.712;2022-11-20T22:44:19;12.38;;;3.90;;
48574;SDS011;34352;51.084;3.712;2022-11-20T22:46:45;13.27;;;3.70;;
48574;SDS011;34352;51.084;3.712;2022-11-20T22:49:11;12.93;;;4.13;;
48574;SDS011;34352;51.084;3.712;2022-11-20T22:51:38;14.85;;;4.63;;
48574;SDS011;34352;51.084;3.712;2022-11-20T22:54:12;11.50;;;4.47;;
48574;SDS011;34352;51.084;3.712;2022-11-20T22:56:40;11.20;;;4.22;;
48574;SDS011;34352;51.084;3.712;2022-11-20T22:59:06;11.63;;;4.75;;
48574;SDS011;34352;51.084;3.712;2022-11-20T23:01:33;14.43;;;5.03;;
48574;SDS011;34352;51.084;3.712;2022-11-20T23:04:02;11.77;;;5.15;;
48574;SDS011;34352;51.084;3.712;2022-11-20T23:14:22;16.55;;;4.82;;
48574;SDS011;34352;51.084;3.712;2022-11-20T23:16:55;19.77;;;5.78;;
48574;SDS011;34352;51.084;3.712;2022-11-20T23:19:21;13.77;;;5.07;;
48574;SDS011;34352;51.084;3.712;2022-11-20T23:21:48;20.40;;;5.40;;
48574;SDS011;34352;51.084;3.712;2022-11-20T23:24:14;11.57;;;4.40;;
48574;SDS011;34352;51.084;3.712;2022-11-20T23:26:55;12.23;;;5.38;;
48574;SDS011;34352;51.084;3.712;2022-11-20T23:29:31;18.42;;;5.05;;
48574;SDS011;34352;51.084;3.712;2022-11-20T23:31:57;11.15;;;4.82;;
48574;SDS011;34352;51.084;3.712;2022-11-20T23:34:27;12.23;;;4.95;;
48574;SDS011;34352;51.084;3.712;2022-11-20T23:36:57;13.73;;;5.40;;
48574;SDS011;34352;51.084;3.712;2022-11-20T23:39:33;21.65;;;5.63;;
48574;SDS011;34352;51.084;3.712;2022-11-20T23:42:03;11.50;;;5.55;;
48574;SDS011;34352;51.084;3.712;2022-11-20T23:44:31;15.23;;;5.65;;
48574;SDS011;34352;51.084;3.712;2022-11-20T23:46:57;16.38;;;6.20;;
48574;SDS011;34352;51.084;3.712;2022-11-20T23:49:28;14.55;;;5.93;;
48574;SDS011;34352;51.084;3.712;2022-11-20T23:51:54;21.63;;;6.97;;
48574;SDS011;34352;51.084;3.712;2022-11-20T23:57:08;16.60;;;6.20;;
48574;SDS011;34352;51.084;3.712;2022-11-20T23:59:34;17.10;;;5.20;;
